Time;durP1;ratioP1;P1;durP2;ratioP2;P2;SDS_P1;SDS_P2;PMS_P1;PMS_P2;Temp;Humidity;BMP_temperature;BMP_pressure;BME280_temperature;BME280_humidity;BME280_pressure;Samples;Min_cycle;Max_cycle;Signal;HPM_P1;HPM_P2
2022/10/30 00:01:58;;;;;;;9.57;9.03;;;;;;;9.24;77.05;93590.59;5091661;28;20266;-70
2022/10/30 00:04:24;;;;;;;8.53;8.13;;;;;;;9.19;76.82;93582.72;5076302;28;20229;-70
2022/10/30 00:06:49;;;;;;;9.67;9.17;;;;;;;9.07;77.90;93580.28;5071460;28;20215;-70
2022/10/30 00:09:15;;;;;;;8.53;8.13;;;;;;;9.15;77.23;93589.47;5076328;28;20255;-70
2022/10/30 00:11:40;;;;;;;9.10;8.70;;;;;;;9.02;76.21;93572.41;5081321;28;20197;-70
2022/10/30 00:14:07;;;;;;;8.77;8.37;;;;;;;8.97;77.00;93587.19;5073736;28;20938;-70
2022/10/30 00:16:32;;;;;;;9.53;9.13;;;;;;;9.03;76.94;93583.59;5070716;28;20193;-70
2022/10/30 00:18:57;;;;;;;9.60;9.20;;;;;;;8.95;76.99;93564.00;5069679;28;20219;-71
2022/10/30 00:21:23;;;;;;;9.10;8.53;;;;;;;9.01;77.48;93572.66;5071258;28;20216;-70
2022/10/30 00:23:51;;;;;;;9.50;9.03;;;;;;;8.86;76.78;93577.69;5070879;28;20221;-70
2022/10/30 00:26:17;;;;;;;9.13;8.73;;;;;;;9.04;76.74;93585.19;5071231;28;20205;-72
2022/10/30 00:28:43;;;;;;;8.60;8.30;;;;;;;9.00;77.38;93586.69;5070741;28;20330;-70
2022/10/30 00:31:09;;;;;;;9.33;8.93;;;;;;;9.03;76.62;93587.00;5071191;28;20186;-70
2022/10/30 00:33:34;;;;;;;10.13;9.63;;;;;;;9.07;77.15;93584.72;5070126;28;20288;-70
2022/10/30 00:35:59;;;;;;;8.73;8.33;;;;;;;8.99;75.74;93575.50;5071093;28;20213;-69
2022/10/30 00:38:25;;;;;;;8.67;8.17;;;;;;;9.15;75.46;93582.44;5070102;28;20296;-70
2022/10/30 00:40:50;;;;;;;9.80;9.30;;;;;;;9.13;75.69;93578.50;5070727;28;20276;-69
2022/10/30 00:43:34;;;;;;;9.23;8.70;;;;;;;9.04;77.04;93578.16;5074193;28;20245;-71
2022/10/30 00:46:34;;;;;;;9.63;9.13;;;;;;;9.02;77.51;93574.22;5084689;28;20202;-70
2022/10/30 00:49:02;;;;;;;9.73;9.33;;;;;;;8.94;77.65;93565.03;5069841;28;20233;-70
2022/10/30 00:51:30;;;;;;;9.83;9.23;;;;;;;8.99;76.26;93565.09;5070366;28;20189;-71
2022/10/30 00:53:58;;;;;;;10.30;9.70;;;;;;;9.01;76.75;93567.47;5079895;28;20239;-70
2022/10/30 00:56:24;;;;;;;8.80;8.40;;;;;;;9.01;77.68;93570.06;5090544;28;20189;-70
2022/10/30 00:58:56;;;;;;;10.07;9.57;;;;;;;8.84;78.67;93551.13;5081875;28;20235;-69
2022/10/30 01:01:26;;;;;;;9.70;9.23;;;;;;;8.93;78.74;93563.47;5070880;28;20236;-70
2022/10/30 01:03:59;;;;;;;9.87;9.27;;;;;;;8.85;78.20;93555.31;5070202;28;20237;-71
2022/10/30 01:06:27;;;;;;;9.60;9.00;;;;;;;8.72;78.39;93540.84;5070364;28;20201;-71
2022/10/30 01:08:53;;;;;;;10.00;9.50;;;;;;;8.76;78.97;93564.59;5069298;28;20229;-70
2022/10/30 01:11:18;;;;;;;10.70;9.90;;;;;;;8.82;78.69;93556.59;5069748;28;20256;-70
2022/10/30 01:13:47;;;;;;;9.13;8.63;;;;;;;8.82;78.16;93553.19;5069715;28;20244;-70
2022/10/30 01:16:16;;;;;;;9.40;8.90;;;;;;;8.83;78.32;93547.72;5069225;28;20189;-70
2022/10/30 01:19:10;;;;;;;10.70;10.20;;;;;;;8.75;79.30;93544.75;5069740;28;20233;-70
2022/10/30 01:22:00;;;;;;;9.07;8.57;;;;;;;8.79;79.20;93530.25;5064166;28;20291;-70
2022/10/30 01:24:31;;;;;;;10.03;9.53;;;;;;;8.80;79.01;93540.41;5076153;28;20216;-71
2022/10/30 01:27:22;;;;;;;8.83;8.43;;;;;;;8.75;78.87;93532.53;5079902;28;20185;-68
2022/10/30 01:29:59;;;;;;;10.13;9.47;;;;;;;8.61;78.41;93512.31;5069039;28;20233;-70
2022/10/30 01:33:02;;;;;;;9.63;9.13;;;;;;;8.55;77.93;93523.72;5069252;28;20211;-70
2022/10/30 01:36:05;;;;;;;9.47;8.97;;;;;;;8.50;77.46;93526.28;5069634;28;20217;-71
2022/10/30 01:38:38;;;;;;;10.03;9.43;;;;;;;8.56;77.46;93520.88;5068938;28;20225;-69
2022/10/30 01:41:03;;;;;;;9.13;8.57;;;;;;;8.46;77.45;93519.97;5070297;28;20216;-70
2022/10/30 01:43:30;;;;;;;9.63;9.23;;;;;;;8.36;78.74;93525.06;5068845;28;20296;-70
2022/10/30 01:46:37;;;;;;;9.50;9.10;;;;;;;8.40;77.83;93532.16;5069948;28;20198;-70
2022/10/30 01:49:29;;;;;;;9.10;8.70;;;;;;;8.40;77.84;93531.34;5069022;28;20222;-69
2022/10/30 01:52:44;;;;;;;8.87;8.47;;;;;;;8.33;78.13;93530.75;5068759;28;20194;-70
2022/10/30 01:55:28;;;;;;;9.63;8.93;;;;;;;8.31;76.83;93528.41;5046867;28;20221;-71
2022/10/30 01:58:23;;;;;;;8.83;8.43;;;;;;;8.29;77.42;93524.47;5067908;28;20221;-69
2022/10/30 02:00:53;;;;;;;9.37;8.97;;;;;;;8.25;76.46;93523.38;5069380;28;20340;-70
2022/10/30 02:03:19;;;;;;;9.10;8.70;;;;;;;7.99;76.71;93499.63;5069134;28;20255;-70
2022/10/30 02:05:48;;;;;;;9.50;9.03;;;;;;;8.17;76.79;93503.75;5069067;28;20197;-70
2022/10/30 02:08:14;;;;;;;9.17;8.77;;;;;;;8.23;76.96;93515.03;5068764;28;20249;-70
2022/10/30 02:10:43;;;;;;;9.13;8.67;;;;;;;8.29;76.99;93512.25;5070761;28;20196;-70
2022/10/30 02:13:08;;;;;;;9.43;9.03;;;;;;;8.15;77.73;93503.97;5066725;28;20217;-69
2022/10/30 02:15:34;;;;;;;9.53;9.03;;;;;;;8.13;77.08;93500.84;5068972;28;20189;-70
2022/10/30 02:18:00;;;;;;;8.73;8.33;;;;;;;8.06;77.05;93505.41;5069604;28;20177;-69
2022/10/30 02:20:25;;;;;;;9.77;9.30;;;;;;;8.08;77.61;93505.97;5070259;28;20217;-70
2022/10/30 02:22:51;;;;;;;7.97;7.67;;;;;;;8.13;77.52;93511.25;5068763;28;20182;-70
2022/10/30 02:25:17;;;;;;;9.23;8.93;;;;;;;8.17;77.87;93508.97;5067984;28;20245;-68
2022/10/30 02:27:42;;;;;;;9.87;9.37;;;;;;;8.25;78.48;93499.97;5068070;28;20189;-70
2022/10/30 02:30:08;;;;;;;10.07;9.37;;;;;;;8.22;79.38;93516.03;5068822;28;20225;-70
2022/10/30 02:32:34;;;;;;;10.13;9.63;;;;;;;8.17;80.29;93517.53;5069166;28;20796;-70
2022/10/30 02:34:59;;;;;;;10.87;10.17;;;;;;;8.15;80.71;93503.19;5068607;28;20275;-70
2022/10/30 02:37:26;;;;;;;11.53;10.80;;;;;;;8.04;82.11;93507.50;5068704;28;20220;-70
2022/10/30 02:39:51;;;;;;;11.67;10.97;;;;;;;8.12;82.04;93512.25;5066153;28;20235;-71
2022/10/30 02:42:16;;;;;;;10.43;9.77;;;;;;;8.09;82.15;93510.13;5072310;28;20189;-70
2022/10/30 02:44:42;;;;;;;11.13;10.47;;;;;;;8.06;82.71;93510.63;5071708;28;20223;-71
2022/10/30 02:47:07;;;;;;;10.83;10.03;;;;;;;8.14;82.99;93507.59;5073018;28;20185;-70
2022/10/30 02:49:32;;;;;;;12.30;11.23;;;;;;;8.07;83.25;93501.81;5072477;28;20221;-71
2022/10/30 02:51:58;;;;;;;12.27;11.17;;;;;;;8.02;83.92;93501.75;5073401;28;20246;-70
2022/10/30 02:54:24;;;;;;;11.87;10.80;;;;;;;7.97;84.90;93506.88;5074024;28;20235;-71
2022/10/30 02:56:50;;;;;;;11.17;10.37;;;;;;;8.05;85.06;93503.84;5073272;28;20197;-70
2022/10/30 02:59:15;;;;;;;12.47;11.63;;;;;;;7.91;85.95;93505.22;5074490;28;20502;-70
2022/10/30 03:01:40;;;;;;;12.03;11.30;;;;;;;7.89;86.32;93511.69;5072957;28;20213;-70
2022/10/30 03:04:06;;;;;;;11.70;11.07;;;;;;;8.02;87.28;93519.16;5083889;28;20240;-69
2022/10/30 03:06:31;;;;;;;13.10;12.03;;;;;;;8.09;86.80;93517.94;5092369;28;20165;-70
2022/10/30 03:08:57;;;;;;;12.33;11.33;;;;;;;8.21;86.41;93512.63;5081251;28;20860;-70
2022/10/30 03:11:22;;;;;;;13.13;12.23;;;;;;;8.26;87.78;93514.53;5072756;28;20288;-69
2022/10/30 03:13:48;;;;;;;12.90;11.93;;;;;;;8.34;87.84;93519.31;5072504;28;20232;-70
2022/10/30 03:16:19;;;;;;;12.60;11.73;;;;;;;8.36;87.55;93522.47;5072389;28;20260;-70
2022/10/30 03:18:46;;;;;;;14.13;13.13;;;;;;;8.59;91.55;93527.44;5071579;28;20232;-70
2022/10/30 03:21:14;;;;;;;14.23;13.10;;;;;;;8.66;93.91;93528.00;5072453;28;20335;-70
2022/10/30 03:23:40;;;;;;;13.03;11.87;;;;;;;8.59;91.26;93532.63;5071334;28;20229;-71
2022/10/30 03:26:06;;;;;;;14.57;13.10;;;;;;;8.49;90.96;93532.50;5072597;28;20254;-70
2022/10/30 03:28:32;;;;;;;14.37;13.17;;;;;;;8.44;90.82;93537.63;5071550;28;20225;-70
2022/10/30 03:31:02;;;;;;;14.30;13.33;;;;;;;8.47;91.95;93529.38;5072635;28;20174;-66
2022/10/30 03:33:28;;;;;;;15.63;14.07;;;;;;;8.55;97.02;93539.34;5078046;28;20288;-67
2022/10/30 03:35:55;;;;;;;15.67;14.47;;;;;;;8.60;94.10;93529.00;5090984;28;20188;-67
2022/10/30 03:38:20;;;;;;;14.87;13.77;;;;;;;8.48;93.75;93526.53;5091728;28;20232;-67
2022/10/30 03:40:45;;;;;;;14.37;13.07;;;;;;;8.45;92.75;93518.41;5092117;28;20330;-66
2022/10/30 03:43:11;;;;;;;13.93;12.70;;;;;;;8.53;92.04;93513.56;5089186;28;20249;-67
2022/10/30 03:45:36;;;;;;;12.57;11.70;;;;;;;8.56;90.67;93505.25;5081506;28;20219;-67
2022/10/30 03:48:03;;;;;;;13.13;12.17;;;;;;;8.47;89.92;93490.34;5076720;28;20237;-66
2022/10/30 03:50:29;;;;;;;12.10;11.30;;;;;;;8.39;90.60;93498.56;5070381;28;20201;-67
2022/10/30 03:52:55;;;;;;;12.37;11.37;;;;;;;8.24;90.29;93498.38;5072380;28;20197;-68
2022/10/30 03:55:21;;;;;;;11.13;10.53;;;;;;;8.26;88.48;93493.72;5081981;28;20194;-67
2022/10/30 03:57:46;;;;;;;10.87;9.90;;;;;;;8.37;86.79;93517.03;5079916;28;20210;-67
2022/10/30 04:00:12;;;;;;;12.30;11.20;;;;;;;8.27;88.66;93523.91;5072284;28;20217;-66
2022/10/30 04:02:37;;;;;;;11.33;10.47;;;;;;;8.31;87.97;93515.41;5070004;28;20249;-67
2022/10/30 04:05:03;;;;;;;11.30;10.53;;;;;;;8.32;86.81;93524.78;5071177;28;20217;-67
2022/10/30 04:07:29;;;;;;;11.83;11.23;;;;;;;8.20;88.18;93521.47;5070822;28;20196;-67
2022/10/30 04:09:54;;;;;;;12.67;11.80;;;;;;;8.15;88.16;93509.16;5071722;28;20233;-71
2022/10/30 04:12:20;;;;;;;11.27;10.20;;;;;;;8.16;87.97;93510.75;5071772;28;20221;-69
2022/10/30 04:14:46;;;;;;;11.37;10.77;;;;;;;8.16;88.47;93505.56;5069803;28;20225;-70
2022/10/30 04:17:11;;;;;;;11.13;10.53;;;;;;;7.97;87.97;93493.88;5070357;28;20264;-70
2022/10/30 04:19:36;;;;;;;10.70;10.03;;;;;;;8.11;87.40;93497.69;5070614;28;20221;-71
2022/10/30 04:22:02;;;;;;;11.43;10.50;;;;;;;8.07;87.20;93504.41;5071093;28;20213;-69
2022/10/30 04:24:27;;;;;;;10.40;9.90;;;;;;;7.88;87.13;93474.50;5070757;28;20228;-70
2022/10/30 04:26:52;;;;;;;10.63;9.93;;;;;;;7.98;87.81;93503.22;5071053;28;20193;-70
2022/10/30 04:29:18;;;;;;;12.13;11.43;;;;;;;7.95;88.05;93508.91;5078800;28;20220;-70
2022/10/30 04:31:43;;;;;;;10.27;9.63;;;;;;;7.99;87.80;93501.44;5080402;28;20193;-70
2022/10/30 04:34:08;;;;;;;10.57;9.97;;;;;;;7.83;88.62;93508.22;5073987;28;20213;-70
2022/10/30 04:36:34;;;;;;;10.80;10.30;;;;;;;7.75;87.69;93482.66;5071081;28;20754;-70
2022/10/30 04:39:01;;;;;;;11.80;10.87;;;;;;;7.92;87.26;93506.03;5073232;28;20256;-70
2022/10/30 04:41:27;;;;;;;10.90;10.20;;;;;;;7.94;86.83;93506.56;5082856;28;20220;-70
2022/10/30 04:43:52;;;;;;;10.77;10.07;;;;;;;7.94;86.79;93509.94;5076034;28;20221;-69
2022/10/30 04:46:18;;;;;;;9.67;9.17;;;;;;;7.88;87.03;93513.50;5070480;28;20186;-71
2022/10/30 04:48:43;;;;;;;10.23;9.63;;;;;;;7.89;87.44;93504.66;5073548;28;20289;-70
2022/10/30 04:51:10;;;;;;;9.63;9.03;;;;;;;7.78;87.71;93512.59;5081802;28;20186;-70
2022/10/30 04:53:36;;;;;;;10.87;10.07;;;;;;;7.69;87.68;93504.41;5077223;28;20259;-70
2022/10/30 04:56:02;;;;;;;11.13;10.07;;;;;;;7.82;87.62;93514.47;5069249;28;20185;-71
2022/10/30 04:58:28;;;;;;;12.07;11.30;;;;;;;7.81;87.88;93512.88;5076429;28;20228;-70
2022/10/30 05:00:53;;;;;;;10.33;9.73;;;;;;;7.81;88.90;93507.69;5090333;28;20216;-70
2022/10/30 05:03:23;;;;;;;11.63;10.83;;;;;;;7.91;88.84;93520.81;5086307;28;20257;-69
2022/10/30 05:06:00;;;;;;;11.17;10.47;;;;;;;7.82;89.04;93524.88;5079775;28;20161;-69
2022/10/30 05:08:26;;;;;;;10.80;10.20;;;;;;;7.80;89.87;93519.09;5073813;28;20228;-70
2022/10/30 05:10:52;;;;;;;10.97;10.37;;;;;;;7.89;89.06;93525.47;5070191;28;20174;-70
2022/10/30 05:13:18;;;;;;;10.17;9.50;;;;;;;7.79;89.02;93503.75;5073484;28;20224;-70
2022/10/30 05:15:43;;;;;;;10.83;10.23;;;;;;;7.80;89.07;93511.31;5078969;28;20188;-70
2022/10/30 05:18:09;;;;;;;11.60;10.73;;;;;;;7.88;88.83;93518.72;5075528;28;20229;-70
2022/10/30 05:20:34;;;;;;;10.77;10.20;;;;;;;7.97;88.28;93522.47;5070419;28;20209;-70
2022/10/30 05:23:00;;;;;;;9.97;9.33;;;;;;;8.02;88.07;93521.75;5069502;28;20241;-71
2022/10/30 05:25:26;;;;;;;10.83;10.30;;;;;;;8.18;87.40;93529.53;5069375;28;20193;-71
2022/10/30 05:28:03;;;;;;;10.67;9.97;;;;;;;8.21;88.73;93533.44;5070296;28;20193;-69
2022/10/30 05:30:30;;;;;;;10.80;10.20;;;;;;;8.17;89.00;93522.72;5069382;28;20188;-70
2022/10/30 05:33:03;;;;;;;11.70;11.10;;;;;;;8.35;88.55;93533.88;5069460;28;20204;-70
2022/10/30 05:35:31;;;;;;;10.43;9.53;;;;;;;8.29;89.05;93519.25;5069256;28;21133;-70
2022/10/30 05:37:57;;;;;;;10.90;10.30;;;;;;;8.31;89.85;93522.41;5068814;28;20177;-69
2022/10/30 05:40:23;;;;;;;10.67;9.93;;;;;;;8.49;90.03;93527.28;5069322;28;20645;-71
2022/10/30 05:42:48;;;;;;;11.77;10.70;;;;;;;8.56;90.72;93520.09;5069549;28;20276;-70
2022/10/30 05:45:14;;;;;;;11.40;10.27;;;;;;;8.76;90.75;93528.94;5068911;28;20201;-69
2022/10/30 05:47:40;;;;;;;11.30;10.47;;;;;;;8.64;90.09;93511.88;5069971;28;20193;-70
2022/10/30 05:50:06;;;;;;;11.17;10.13;;;;;;;8.81;89.93;93536.00;5069062;28;20496;-69
2022/10/30 05:52:31;;;;;;;12.57;11.57;;;;;;;8.92;89.20;93524.66;5069789;28;20184;-70
2022/10/30 05:54:57;;;;;;;15.53;14.03;;;;;;;8.93;89.21;93532.22;5068560;28;20220;-70
2022/10/30 05:57:22;;;;;;;13.10;12.00;;;;;;;8.84;89.32;93486.03;5069434;28;20292;-69
2022/10/30 05:59:47;;;;;;;11.47;10.67;;;;;;;9.11;89.12;93534.47;5068298;28;20781;-70
2022/10/30 06:02:13;;;;;;;13.07;12.07;;;;;;;9.18;89.74;93513.44;5069272;28;20221;-71
2022/10/30 06:04:38;;;;;;;13.00;11.83;;;;;;;9.28;89.53;93521.31;5069063;28;20244;-70
2022/10/30 06:07:04;;;;;;;14.20;13.07;;;;;;;9.39;89.89;93520.38;5069353;28;20193;-70
2022/10/30 06:09:29;;;;;;;14.17;12.97;;;;;;;9.48;90.05;93521.47;5075439;28;20221;-70
2022/10/30 06:11:55;;;;;;;13.70;12.50;;;;;;;9.53;89.84;93516.31;5078759;28;20211;-70
2022/10/30 06:14:20;;;;;;;14.77;13.43;;;;;;;9.75;91.21;93519.59;5071880;28;20261;-70
2022/10/30 06:16:47;;;;;;;14.93;13.73;;;;;;;9.83;90.39;93516.53;5068526;28;20193;-70
2022/10/30 06:19:12;;;;;;;14.47;13.37;;;;;;;10.01;89.41;93520.56;5070914;28;20230;-69
2022/10/30 06:21:37;;;;;;;14.83;13.73;;;;;;;10.29;88.64;93531.44;5068559;28;20216;-71
2022/10/30 06:24:03;;;;;;;14.97;13.57;;;;;;;10.25;88.66;93537.41;5066901;28;20236;-71
2022/10/30 06:26:28;;;;;;;14.87;13.73;;;;;;;10.25;89.10;93538.22;5068608;28;20207;-71
2022/10/30 06:28:54;;;;;;;15.47;14.30;;;;;;;10.28;89.46;93529.88;5063543;28;20225;-71
2022/10/30 06:31:19;;;;;;;16.57;14.87;;;;;;;10.58;88.83;93529.22;5067055;28;20257;-72
2022/10/30 06:33:44;;;;;;;16.07;14.30;;;;;;;10.67;87.81;93518.03;5067133;28;20288;-71
2022/10/30 06:36:10;;;;;;;17.87;15.60;;;;;;;10.53;89.42;93522.16;5068430;28;20197;-69
2022/10/30 06:38:35;;;;;;;17.50;15.90;;;;;;;10.62;90.01;93525.84;5066748;28;20225;-69
2022/10/30 06:41:01;;;;;;;16.70;15.10;;;;;;;10.69;90.76;93539.44;5068090;28;20232;-70
2022/10/30 06:43:26;;;;;;;18.30;15.60;;;;;;;10.64;90.75;93538.63;5067148;28;20241;-70
2022/10/30 06:45:52;;;;;;;16.70;15.00;;;;;;;10.61;91.88;93537.34;5067601;28;20232;-71
2022/10/30 06:48:17;;;;;;;18.60;16.43;;;;;;;10.57;91.56;93536.25;5064251;28;20231;-69
2022/10/30 06:50:43;;;;;;;16.33;14.93;;;;;;;10.55;91.10;93530.50;5067361;28;20200;-69
2022/10/30 06:53:08;;;;;;;17.03;15.53;;;;;;;10.60;90.28;93517.47;5066831;28;20255;-68
2022/10/30 06:55:34;;;;;;;17.33;15.77;;;;;;;10.61;92.03;93531.31;5067521;28;20262;-68
2022/10/30 06:57:59;;;;;;;18.47;16.53;;;;;;;10.72;91.98;93538.91;5067115;28;20224;-68
2022/10/30 07:00:25;;;;;;;18.33;16.63;;;;;;;10.95;91.20;93545.53;5066586;28;20287;-68
2022/10/30 07:02:58;;;;;;;18.43;16.63;;;;;;;10.88;90.61;93553.59;5067212;28;20197;-67
2022/10/30 07:05:24;;;;;;;17.83;16.33;;;;;;;10.74;90.96;93549.91;5086856;28;20185;-68
2022/10/30 07:07:49;;;;;;;18.17;16.47;;;;;;;10.88;90.46;93551.00;5086796;28;20197;-67
2022/10/30 07:10:14;;;;;;;19.63;17.83;;;;;;;11.06;88.43;93549.75;5074507;28;20758;-70
2022/10/30 07:12:40;;;;;;;22.13;20.20;;;;;;;11.07;88.35;93544.25;5076942;28;20188;-69
2022/10/30 07:15:06;;;;;;;18.37;16.57;;;;;;;11.12;87.67;93536.44;5074623;28;21000;-70
2022/10/30 07:17:31;;;;;;;20.17;18.07;;;;;;;11.34;86.95;93534.38;5079193;28;20197;-69
2022/10/30 07:19:56;;;;;;;19.50;17.60;;;;;;;11.03;88.92;93534.59;5066619;28;20243;-69
2022/10/30 07:22:22;;;;;;;21.23;19.03;;;;;;;11.09;89.11;93533.53;5066264;28;20187;-69
2022/10/30 07:24:47;;;;;;;20.33;18.23;;;;;;;11.39;87.25;93542.22;5084440;28;20234;-68
2022/10/30 07:27:12;;;;;;;19.27;17.37;;;;;;;11.49;86.00;93538.06;5089182;28;20192;-69
2022/10/30 07:29:38;;;;;;;20.43;18.23;;;;;;;11.39;86.43;93531.75;5081724;28;20220;-69
2022/10/30 07:32:03;;;;;;;19.30;17.30;;;;;;;11.59;85.81;93530.19;5079581;28;20219;-72
2022/10/30 07:34:29;;;;;;;23.07;17.70;;;;;;;11.57;85.54;93540.13;5073715;28;20292;-70
2022/10/30 07:36:55;;;;;;;19.67;17.77;;;;;;;11.22;86.96;93515.53;5071456;28;20250;-70
2022/10/30 07:39:20;;;;;;;20.70;18.47;;;;;;;10.93;89.26;93511.03;5084870;28;20240;-72
2022/10/30 07:41:48;;;;;;;19.80;17.90;;;;;;;11.17;89.30;93525.97;5090954;28;20235;-70
2022/10/30 07:44:13;;;;;;;20.57;18.40;;;;;;;11.34;89.74;93529.16;5090738;28;20233;-71
2022/10/30 07:46:38;;;;;;;22.83;18.67;;;;;;;11.57;89.90;93529.66;5089876;28;20254;-69
2022/10/30 07:49:04;;;;;;;19.50;17.50;;;;;;;11.94;86.56;93538.06;5080128;28;20221;-69
2022/10/30 07:51:29;;;;;;;20.97;18.93;;;;;;;12.14;84.47;93533.56;5070121;28;20187;-69
2022/10/30 07:53:55;;;;;;;23.80;18.73;;;;;;;12.23;83.72;93531.22;5069229;28;20228;-69
2022/10/30 07:56:20;;;;;;;18.83;17.13;;;;;;;12.02;84.05;93513.97;5070457;28;20222;-67
2022/10/30 07:58:45;;;;;;;23.87;18.17;;;;;;;12.18;83.57;93518.13;5078990;28;20230;-69
2022/10/30 08:01:11;;;;;;;20.10;18.20;;;;;;;12.25;83.00;93516.03;5090178;28;20231;-68
2022/10/30 08:03:36;;;;;;;20.73;18.53;;;;;;;12.51;81.98;93520.13;5080386;28;20223;-67
2022/10/30 08:06:01;;;;;;;21.93;18.67;;;;;;;12.71;84.63;93512.19;5070976;28;20210;-68
2022/10/30 08:08:27;;;;;;;19.87;17.90;;;;;;;12.90;80.01;93510.53;5070254;28;20614;-68
2022/10/30 08:10:52;;;;;;;19.53;17.87;;;;;;;13.12;79.31;93504.94;5070998;28;20793;-68
2022/10/30 08:13:18;;;;;;;18.53;16.77;;;;;;;13.27;78.87;93505.63;5069908;28;20233;-69
2022/10/30 08:15:43;;;;;;;19.83;17.83;;;;;;;13.18;78.63;93517.75;5071018;28;20173;-69
2022/10/30 08:18:08;;;;;;;22.00;19.40;;;;;;;12.75;79.89;93507.97;5069575;28;20802;-70
2022/10/30 08:20:34;;;;;;;19.83;17.93;;;;;;;12.98;80.14;93512.56;5070728;28;20269;-66
2022/10/30 08:22:59;;;;;;;21.10;18.90;;;;;;;13.30;78.41;93507.69;5070505;28;22318;-67
2022/10/30 08:25:29;;;;;;;23.03;17.57;;;;;;;13.57;76.85;93513.25;5070204;28;20215;-68
2022/10/30 08:28:01;;;;;;;22.80;18.60;;;;;;;13.48;76.64;93514.13;5071760;28;20181;-67
2022/10/30 08:30:29;;;;;;;21.20;18.57;;;;;;;13.67;76.67;93510.56;5090498;28;20223;-68
2022/10/30 08:32:59;;;;;;;24.40;18.97;;;;;;;13.74;76.26;93499.75;5088561;28;20197;-69
2022/10/30 08:35:25;;;;;;;19.40;17.53;;;;;;;13.40;77.41;93491.88;5081770;28;20193;-67
2022/10/30 08:37:57;;;;;;;22.67;18.57;;;;;;;13.60;76.58;93507.47;5077299;28;20222;-68
2022/10/30 08:40:24;;;;;;;19.40;17.40;;;;;;;13.50;76.94;93512.78;5069840;28;20237;-67
2022/10/30 08:42:50;;;;;;;21.20;16.97;;;;;;;13.82;76.01;93522.78;5069392;28;20189;-68
2022/10/30 08:45:16;;;;;;;18.47;16.67;;;;;;;13.81;75.85;93508.88;5091828;28;20482;-68
2022/10/30 08:47:41;;;;;;;20.43;17.23;;;;;;;13.64;76.56;93515.56;5089208;28;20192;-68
2022/10/30 08:50:07;;;;;;;19.10;17.00;;;;;;;13.87;76.08;93510.38;5070412;28;20203;-67
2022/10/30 08:52:32;;;;;;;17.83;16.10;;;;;;;13.99;75.23;93521.28;5069555;28;20231;-67
2022/10/30 08:54:58;;;;;;;20.10;16.60;;;;;;;14.25;74.11;93521.88;5087016;28;20208;-66
2022/10/30 08:57:23;;;;;;;21.03;18.93;;;;;;;14.04;74.65;93525.72;5089947;28;20177;-65
2022/10/30 08:59:48;;;;;;;18.57;16.70;;;;;;;13.80;76.35;93499.44;5089750;28;20231;-66
2022/10/30 09:02:14;;;;;;;18.63;16.63;;;;;;;14.05;76.11;93509.72;5089818;28;20216;-66
2022/10/30 09:04:39;;;;;;;20.20;18.13;;;;;;;14.32;74.72;93504.72;5088343;28;20246;-66
2022/10/30 09:07:04;;;;;;;19.77;17.27;;;;;;;14.28;74.29;93501.09;5089466;28;20197;-66
2022/10/30 09:09:30;;;;;;;18.17;16.37;;;;;;;14.28;74.55;93495.06;5087784;28;20955;-66
2022/10/30 09:11:55;;;;;;;19.57;17.50;;;;;;;14.22;74.80;93489.06;5089704;28;20232;-66
2022/10/30 09:14:20;;;;;;;19.10;17.33;;;;;;;14.30;73.76;93482.44;5081755;28;20221;-66
2022/10/30 09:16:46;;;;;;;18.13;16.40;;;;;;;14.86;72.59;93491.22;5081847;28;20196;-66
2022/10/30 09:19:11;;;;;;;18.33;16.43;;;;;;;14.80;72.27;93492.31;5071005;28;20217;-66
2022/10/30 09:21:36;;;;;;;19.53;17.43;;;;;;;15.06;70.99;93496.22;5071923;28;20267;-66
2022/10/30 09:24:02;;;;;;;23.33;17.13;;;;;;;15.07;70.07;93475.94;5073920;28;20225;-66
2022/10/30 09:26:28;;;;;;;17.73;15.90;;;;;;;15.36;69.01;93489.72;5079380;28;20189;-67
2022/10/30 09:28:53;;;;;;;18.47;16.77;;;;;;;15.22;69.83;93499.41;5073653;28;20252;-66
2022/10/30 09:31:18;;;;;;;20.60;17.63;;;;;;;15.19;70.11;93494.72;5068986;28;20202;-66
2022/10/30 09:33:44;;;;;;;21.13;17.83;;;;;;;15.12;70.40;93497.69;5076144;28;20220;-65
2022/10/30 09:36:09;;;;;;;23.03;17.70;;;;;;;15.09;71.23;93500.09;5090215;28;20839;-65
2022/10/30 09:38:34;;;;;;;19.50;17.30;;;;;;;15.27;69.88;93491.44;5085187;28;20260;-65
2022/10/30 09:41:18;;;;;;;20.03;16.83;;;;;;;15.15;70.03;93491.88;5081004;28;20209;-67
2022/10/30 09:44:18;;;;;;;21.73;16.73;;;;;;;15.19;69.45;93490.22;5068768;28;20291;-67
2022/10/30 09:46:43;;;;;;;23.60;18.07;;;;;;;15.35;69.98;93483.69;5067964;28;20193;-67
2022/10/30 09:50:21;;;;;;;22.37;18.17;;;;;;;15.38;70.08;93469.19;5079154;28;20224;-67
2022/10/30 09:53:06;;;;;;;19.23;17.33;;;;;;;15.56;68.97;93478.94;4994178;28;20299;-68
2022/10/30 09:56:04;;;;;;;19.80;17.77;;;;;;;16.05;66.51;93473.88;5026738;28;20193;-67
2022/10/30 09:58:59;;;;;;;18.93;17.03;;;;;;;15.85;67.92;93450.53;5086261;28;20267;-67
2022/10/30 10:01:36;;;;;;;22.83;17.60;;;;;;;15.72;68.02;93451.28;5088265;28;20234;-67
2022/10/30 10:04:13;;;;;;;25.33;18.63;;;;;;;15.84;68.10;93452.38;5086401;28;20224;-68
2022/10/30 10:06:43;;;;;;;19.53;17.63;;;;;;;16.03;67.99;93457.59;5087999;28;20937;-68
2022/10/30 10:09:16;;;;;;;21.03;17.57;;;;;;;16.51;65.65;93448.28;5072784;28;20249;-66
2022/10/30 10:11:46;;;;;;;21.03;18.73;;;;;;;16.32;66.18;93429.13;5067089;28;20249;-67
2022/10/30 10:14:20;;;;;;;19.63;17.33;;;;;;;16.36;66.33;93458.31;5075377;28;20292;-67
2022/10/30 10:16:51;;;;;;;18.77;16.37;;;;;;;16.52;66.27;93444.56;5086022;28;20883;-67
2022/10/30 10:19:28;;;;;;;18.37;16.60;;;;;;;16.64;64.68;93447.47;5076739;28;20256;-67
2022/10/30 10:21:59;;;;;;;17.67;16.00;;;;;;;16.88;62.38;93431.41;5076588;28;20208;-67
2022/10/30 10:24:31;;;;;;;19.43;17.33;;;;;;;16.85;62.32;93424.91;5068253;28;20217;-67
2022/10/30 10:27:18;;;;;;;18.30;15.73;;;;;;;16.83;61.78;93419.13;5067522;28;20696;-67
2022/10/30 10:30:11;;;;;;;17.40;15.80;;;;;;;17.15;61.06;93426.09;5067390;28;20229;-67
2022/10/30 10:33:05;;;;;;;16.63;15.07;;;;;;;17.21;59.77;93415.09;5067646;28;20196;-68
2022/10/30 10:35:43;;;;;;;17.47;15.67;;;;;;;17.29;59.81;93410.97;5066812;28;20217;-66
2022/10/30 10:38:27;;;;;;;16.70;15.20;;;;;;;17.55;58.16;93412.75;5066618;28;20230;-69
2022/10/30 10:41:14;;;;;;;15.10;13.57;;;;;;;17.68;58.36;93411.13;5067685;28;20211;-67
2022/10/30 10:43:50;;;;;;;19.30;17.43;;;;;;;17.76;56.84;93406.97;5064275;28;20217;-67
2022/10/30 10:46:35;;;;;;;14.63;13.23;;;;;;;17.85;56.19;93418.34;5068041;28;20216;-69
2022/10/30 10:49:24;;;;;;;13.43;12.03;;;;;;;17.81;55.79;93412.88;5065160;28;20228;-69
2022/10/30 10:52:16;;;;;;;13.97;12.67;;;;;;;17.75;56.51;93410.66;5066526;28;20181;-68
2022/10/30 10:54:44;;;;;;;13.60;12.40;;;;;;;17.81;57.61;93412.09;5064974;28;20242;-68
2022/10/30 10:57:34;;;;;;;14.17;12.87;;;;;;;17.97;55.71;93415.91;5065905;28;20195;-69
2022/10/30 11:00:04;;;;;;;15.10;13.70;;;;;;;17.96;55.50;93406.44;5064384;28;20248;-69
2022/10/30 11:02:38;;;;;;;15.53;12.97;;;;;;;18.06;56.25;93408.81;5067347;28;20232;-70
2022/10/30 11:05:45;;;;;;;12.90;11.60;;;;;;;18.26;54.94;93402.97;5089168;28;20237;-69
2022/10/30 11:08:18;;;;;;;13.30;12.10;;;;;;;18.17;55.28;93396.88;5079563;28;20288;-70
2022/10/30 11:10:48;;;;;;;13.27;11.97;;;;;;;18.09;56.42;93395.75;5070300;28;20189;-70
2022/10/30 11:13:13;;;;;;;12.13;11.23;;;;;;;17.73;56.50;93357.38;5068716;28;20218;-70
2022/10/30 11:15:49;;;;;;;17.10;15.27;;;;;;;18.34;55.58;93381.06;5067632;28;20210;-68
2022/10/30 11:18:14;;;;;;;13.53;12.50;;;;;;;18.60;54.80;93381.97;5067301;28;20241;-68
2022/10/30 11:20:40;;;;;;;12.60;11.37;;;;;;;18.51;55.11;93379.28;5071267;28;20274;-68
2022/10/30 11:23:33;;;;;;;12.33;11.23;;;;;;;18.45;54.83;93377.09;5073756;28;20237;-68
2022/10/30 11:26:00;;;;;;;12.57;11.60;;;;;;;18.47;54.45;93372.28;5079913;28;20220;-67
2022/10/30 11:28:34;;;;;;;11.57;10.77;;;;;;;18.34;54.35;93365.22;5074437;28;20241;-68
2022/10/30 11:31:22;;;;;;;11.50;10.50;;;;;;;18.23;55.06;93366.56;5070667;28;20192;-69
2022/10/30 11:33:49;;;;;;;11.80;10.83;;;;;;;18.20;55.45;93351.34;5075213;28;20225;-69
2022/10/30 11:36:17;;;;;;;11.40;10.47;;;;;;;18.50;54.70;93366.38;5080620;28;20178;-68